Kandahar Airport
OAKN : now visible

Airfield :











YOU CAN JOIN US ON...

 
LOGIN :

Register | Disclaimer

   EN    FR    IT 

 









Legend :    VFR   Marginal VFR   IFR   Intensive IFR   Very Intensive IFR
Visi :
Ceiling :
>= 8 km
>= 3000ft
5 to 8 km
1000 to 3000 ft
1500m to 5 km
500 to 1000 ft
800 to 1500m
200 to 500 ft
< 800m
< 200 ft
Symbols :   Thunderstorms  Fog  Heavy snow  Heavy precipitations  Wind > 20 kt







- Airport Elevation : 3337 ft
- IATA code : KDH


OAKN - Kandahar

CURRENT METAR :
  • 201855Z VRB02KT 9999 CLR 30/M04 A2965 RMK AO2A SLP975 WND DATA ESTMD Q1004 PA3551 DA6071 T02981041

EXPIRED METARs :
  • 201757Z VRB03KT 9999 CLR 31/M03 A2965 RMK AO2A SLP976 WND DATA ESTMD Q1004 PA3550 DA6177 T03091035 10384 20306 51005
  • 201655Z 20003KT 9999 CLR 31/M03 A2966 RMK AO2A SLP937 WND DATA ESTMD Q1004 PA3552 DA6196 T03141023

TAF TAF OAKN
Valid from the 20 at 07:00 until the 21 at 13:00 UTC


200700Z 2007/2113 22009KT 9999 SKC QNH2966INS
TEMPO 2007/2013 25012G18KT
BECMG 2014/2015 VRB06KT 9999 SKC QNH2960INS
BECMG 2107/2108 25015G20KT 9999 SKC QNH2961INS TX39/2010Z TN22/2100Z
OAKX FIR / Asia



MET'MAP, your aeronautical weather chart ! - Copyright ORBIFLY December 2007 - Disclaimer

ORBIFLY MET'MAP TEAM :

Programming & Development : Alexandra Zaïnal
Concept & Development : Baudouin d'Aumeries
Co-Development & Prog : Marc-Olivier Méhu
Technical & hardware support : Manuel Goepfert

Contact : metmap@orbifly.com




SOURCES & CREDITS :

   NOAA       Earth
Advisory